Terminal Aerodrome Forecast
Issued by NWS Blacksburg, VA

Current Version | Previous Version | Text Only | Print | Product List | Glossary Off
Versions: 1 2 3 4 5 6 7 8 9 10 11 12 13 14 15 16 17 18 19 20 21 22

000
FTUS41 KRNK 301659 AAA
TAFBLF
TAF AMD
KBLF 301659Z 3017/0112 14007G17KT P6SM SCT025 OVC100
     FM301800 13010G18KT 6SM -RA BR OVC030
     FM302300 13009G17KT 5SM -SHRA BR BKN015 OVC023
     FM010300 14010G20KT 4SM SHRA BR BKN007 OVC012=

USA.gov is the U.S. government's official web portal to all federal, state and local government web resources and services.